Terminal Aerodrome Forecast
Issued by NWS Northern Indiana

Home | Current Version | Previous Version | Text Only | Print | Product List | Glossary On
Versions: 1 2 3 4 5 6 7 8 9 10 11 12 13 14 15 16 17 18 19 20
539
FTUS43 KIWX 231137
TAFFWA
TAF
KFWA 231137Z 2312/2412 25011KT P6SM -SHRA BKN015
      TEMPO 2312/2315 3SM -SHRA BR BKN006
     FM231600 27015G23KT P6SM VCSH OVC015
     FM240200 29010KT P6SM OVC025=

USA.gov is the U.S. government's official web portal to all federal, state and local government web resources and services.